Flight Track Log - Related Links

Times and Time Zones

All times are in EDT time to prevent confusion due to time zone crossing. See the DAL4165 flight status page for this flight to view local times or setup timezone preferences in your user account.

Time Position Orientation Groundspeed Altitude Reporting Facility
EDT Latitude Longitude Course Direction KTS MPH feet Rate Location/Type
Sun 07:15:12 PM 35.3394 -97.5917 176° South 177 204 3,500  Level Fort Worth Center
Sun 07:16:13 PM 35.2789 -97.5864 176° South 230 265 6,100 2,457 Climbing Fort Worth Center
Sun 07:17:00 PM 35.4001 -97.0327 90° East  Level FlightAware Approximate
Sun 07:17:19 PM 35.2539 -97.4897 108° East 357 411 8,700  Level Fort Worth Center
Sun 07:18:00 PM 35.4000 -96.8906 90° East  Level FlightAware Approximate
Sun 07:18:19 PM 35.2519 -97.3831 91° East 325 374 11,200  Level Fort Worth Center
Sun 07:19:00 PM 35.4000 -96.7485 90° East  Level FlightAware Approximate
Sun 07:19:19 PM 35.2561 -97.2636 88° East 326 375 12,600  Level Fort Worth Center
Sun 07:20:00 PM 35.4000 -96.6064 90° East  Level FlightAware Approximate
Sun 07:20:19 PM 35.2600 -97.1289 88° East 354 407 14,500  Level Fort Worth Center
Sun 07:21:19 PM 35.2678 -96.9914 86° East 385 443 15,000 250 Climbing Fort Worth Center
Sun 07:22:19 PM 35.2758 -96.8542 86° East 398 458 15,000 950 Level Fort Worth Center
Sun 07:23:19 PM 35.2833 -96.7092 86° East 414 476 16,900 1,750 Climbing Fort Worth Center
Sun 07:24:19 PM 35.2908 -96.5642 86° East 420 483 18,500 1,650 Climbing Fort Worth Center
Sun 07:25:19 PM 35.2981 -96.4089 87° East 430 495 20,200 1,550 Climbing Fort Worth Center
Sun 07:26:19 PM 35.3050 -96.2536 87° East 445 512 21,600 1,250 Climbing Fort Worth Center
Sun 07:27:19 PM 35.3139 -96.0931 86° East 462 532 22,700 1,300 Climbing Fort Worth Center
Sun 07:28:19 PM 35.3203 -95.9278 87° East 473 544 24,200 1,450 Climbing Fort Worth Center
Sun 07:29:19 PM 35.3308 -95.7647 85° East 478 550 25,600 1,100 Climbing Fort Worth Center
Sun 07:30:19 PM 35.3389 -95.5939 87° East 483 556 26,400 900 Climbing Fort Worth Center
Sun 07:31:19 PM 35.3467 -95.4233 87° East 494 568 27,400 1,122 Climbing Fort Worth Center
Sun 07:32:22 PM 35.3519 -95.2422 88° East 513 590 28,700 1,366 Climbing Memphis Center
Sun 07:33:22 PM 35.3586 -95.0669 87° East 513 590 30,200 1,300 Climbing Memphis Center
Sun 07:34:22 PM 35.3650 -94.8942 87° East 513 590 31,300 1,050 Climbing Memphis Center
Sun 07:35:22 PM 35.3733 -94.7164 87° East 518 596 32,300 1,000 Climbing Memphis Center
Sun 07:36:22 PM 35.3769 -94.5536 88° East 518 596 33,300 1,000 Climbing Memphis Center
Sun 07:37:22 PM 35.3853 -94.3606 87° East 518 596 34,300 850 Climbing Memphis Center
Sun 07:38:22 PM 35.3786 -94.1742 92° East 523 602 35,000 350 Climbing Memphis Center
Sun 07:39:22 PM 35.3675 -93.9903 94° East 539 620 35,000  Level Memphis Center
Sun 07:40:22 PM 35.3542 -93.8039 95° East 544 626 35,000  Level Memphis Center
Sun 07:41:22 PM 35.3403 -93.6175 95° East 549 632 35,000  Level Memphis Center
Sun 07:42:22 PM 35.3264 -93.4314 95° East 549 632 35,000  Level Memphis Center
Sun 07:43:22 PM 35.3144 -93.2325 94° East 544 626 35,000  Level Memphis Center
Sun 07:44:22 PM 35.2997 -93.0486 96° East 539 620 35,000  Level Memphis Center
Sun 07:45:22 PM 35.2828 -92.8625 96° East 544 626 35,000  Level Memphis Center
Sun 07:46:22 PM 35.2656 -92.6686 96° East 552 635 35,000  Level Memphis Center
Sun 07:47:22 PM 35.2519 -92.4903 95° East 558 642 35,000  Level Memphis Center
Sun 07:48:22 PM 35.2342 -92.3044 97° East 548 631 35,000  Level Memphis Center
Sun 07:49:22 PM 35.2181 -92.1208 96° East 543 625 35,000  Level Memphis Center
Sun 07:50:22 PM 35.2039 -91.9403 95° East 543 625 35,000  Level Memphis Center
Sun 07:51:22 PM 35.1875 -91.7519 96° East 538 619 35,000  Level Memphis Center
Sun 07:52:22 PM 35.1706 -91.5686 96° East 538 619 35,000  Level Memphis Center
Sun 07:53:22 PM 35.1533 -91.3856 97° East 538 619 35,000  Level Memphis Center
Sun 07:54:22 PM 35.1419 -91.2231 95° East 538 619 35,000  Level Memphis Center
Sun 07:55:22 PM 35.1244 -91.0425 97° East 538 619 35,000  Level Memphis Center
Sun 07:56:22 PM 35.1044 -90.8469 97° East 538 619 35,000  Level Memphis Center
Sun 07:57:22 PM 35.0842 -90.6667 98° East 538 619 35,000  Level Memphis Center
Sun 07:58:22 PM 35.0678 -90.4864 96° East 538 619 35,000  Level Memphis Center
Sun 07:59:22 PM 35.0492 -90.3064 97° East 538 619 35,000  Level Memphis Center
Sun 08:00:22 PM 35.0322 -90.1264 97° East 538 619 35,000  Level Memphis Center
Sun 08:01:22 PM 35.0128 -89.9489 98° East 538 619 35,000  Level Memphis Center
Sun 08:02:22 PM 34.9936 -89.7842 98° East 538 619 35,000  Level Memphis Center
Sun 08:03:22 PM 34.9633 -89.6044 102° East 551 634 35,000  Level Memphis Center
Sun 08:04:22 PM 34.9328 -89.4250 102° East 539 620 35,000  Level Memphis Center
Sun 08:05:22 PM 34.9019 -89.2253 101° East 539 620 35,000  Level Memphis Center
Sun 08:06:22 PM 34.8753 -89.0483 100° East 540 621 35,000  Level Memphis Center
Sun 08:07:22 PM 34.8481 -88.8692 100° East 540 621 35,000  Level Memphis Center
Sun 08:08:22 PM 34.8208 -88.6925 101° East 540 621 35,000  Level Memphis Center
Sun 08:09:22 PM 34.7933 -88.5136 101° East 540 621 35,000  Level Memphis Center
Sun 08:10:22 PM 34.7681 -88.3600 101° East 534 615 35,000  Level Memphis Center
Sun 08:11:22 PM 34.7375 -88.1583 100° East 534 615 35,000  Level Memphis Center
Sun 08:12:22 PM 34.7092 -87.9822 101° East 541 623 35,000  Level Memphis Center
Sun 08:13:22 PM 34.6831 -87.8239 101° East 541 623 35,000  Level Memphis Center
Sun 08:14:22 PM 34.6542 -87.6456 101° East 541 623 35,000 -686 Level Memphis Center
Sun 08:16:17 PM 34.5981 -87.3167 102° East 533 613 33,000 -686 Descending Atlanta Center
Sun 08:17:17 PM 34.5628 -87.1414 104° East 528 608 33,000  Level Atlanta Center
Sun 08:18:17 PM 34.5317 -86.9711 102° East 523 602 33,000 -300 Level Atlanta Center
Sun 08:19:17 PM 34.5000 -86.8039 103° East 523 602 32,400 -1,250 Descending Atlanta Center
Sun 08:20:17 PM 34.4681 -86.6414 103° East 505 581 30,500 -1,850 Descending Atlanta Center
Sun 08:21:17 PM 34.4378 -86.4894 104° East 482 555 28,700 -1,800 Descending Atlanta Center
Sun 08:22:17 PM 34.4094 -86.3400 103° East 461 531 26,900 -1,850 Descending Atlanta Center
Sun 08:23:17 PM 34.3806 -86.1933 103° East 454 522 25,000 -1,450 Descending Atlanta Center
Sun 08:24:17 PM 34.3519 -86.0492 103° East 449 517 24,000 -800 Descending Atlanta Center
Sun 08:25:17 PM 34.3228 -85.9050 104° East 444 511 23,400 -1,300 Descending Atlanta Center
Sun 08:26:17 PM 34.2936 -85.7586 104° East 425 489 21,400 -1,950 Descending Atlanta Center
Sun 08:27:17 PM 34.2683 -85.6300 103° East 402 463 19,500 -1,800 Descending Atlanta Center
Sun 08:28:17 PM 34.2428 -85.5014 103° East 391 450 17,800 -1,500 Descending Atlanta Center
Sun 08:29:17 PM 34.2169 -85.3778 104° East 381 438 16,500 -1,450 Descending Atlanta Center
Sun 08:30:17 PM 34.1931 -85.2594 104° East 373 429 14,900 -1,450 Descending Atlanta Center
Sun 08:31:17 PM 34.1672 -85.1433 105° East 364 419 13,600 -950 Descending Atlanta Center
Sun 08:32:17 PM 34.1136 -85.0575 127° Southeast 340 391 13,000 -500 Descending Atlanta Center
Sun 08:33:17 PM 34.0536 -84.9792 133° Southeast 318 366 12,600 -650 Descending Atlanta Center
Sun 08:34:17 PM 33.9894 -84.9206 143° Southeast 299 344 11,700 -1,200 Descending Atlanta Center
Sun 08:35:17 PM 33.9186 -84.8950 163° South 274 315 10,200 -1,350 Descending Atlanta Center
Sun 08:36:17 PM 33.8456 -84.8892 176° South 268 308 9,000 -600 Descending Atlanta Center
Sun 08:37:17 PM 33.7872 -84.8911 182° South 254 292 9,000 -400 Level Atlanta Center
Sun 08:38:17 PM 33.7225 -84.8956 183° South 238 274 8,200 -1,200 Descending Atlanta Center
Sun 08:39:17 PM 33.6661 -84.8875 173° South 220 253 6,600 -1,320 Descending Atlanta Center
Sun 08:39:57 PM 33.6500 -84.8333 110° East 208 239 6,000 -340 Descending Atlanta TRACON
Sun 08:41:03 PM 33.6333 -84.7500 103° East 207 238 6,000 -571 Level Atlanta TRACON
Sun 08:42:03 PM 33.6333 -84.6833 90° East 205 236 4,800 -1,050 Descending Atlanta TRACON
Sun 08:43:03 PM 33.6333 -84.6167 90° East 197 227 3,900 -900 Descending Atlanta TRACON

Login

Don't have an account? Register now (free) for customized features, flight alerts, and more!